Portada
METAR-TAF:

METAR-TAF

Aeroports :

Bournemouth, Anglaterra

latitud: 50-47N, longitud: 001-50W, altitud: 11 m

Observació

L'informe es va fer fa 1 hora i 22 minuts, a les 21:20 UTC
Vent 15 kt del Oest/Nord-Oest
Temperatura 5°C
Humitat 87%
Pressió 1017 hPa
Visibilitat 10 km o més
Escasses núvols a una alçada de 2300 ft

METAR: EGHH 182120Z 29015KT 9999 FEW023 05/03 Q1017

Hora: 22:42 (22:42 UTC)

Pronòstic

L'informe es va fer fa 2 hores i 37 minuts, a les 20:05 UTC
Pronòstic vàlid del 18 a les 21 UTC al 19 a les 06 UTC
Vent 12 kt del Oest
Visibilitat 10 km o més
Escasses núvols a una alçada de 3000 ft
Temporalment
l' 18 a les 21 UTC al 18 a les 22 UTC
Vent 18 kt del Oest amb ràfegues de 30 kt
Visibilitat: 6000 m
xàfecs de pluja

TAF: EGHH 182005Z 1821/1906 26012KT 9999 FEW030 TEMPO 1821/1822 27018G30KT 6000 SHRA

Observacions i pronòstics meteorològics de més de 4000 aeroports (METAR i TAF).

Les estacions disponibles són els punts grocs i vermells al mapa.

Posi el ratolí al punt desitjat per veure el nom de l'estació.

Feu clic per veure les observacions i els pronòstics meteorològics.

Per canviar el mapa: feu clic els botons verds amb una creu de color negre per apropar; al botó verd amb un guió per allunyar la imatge; o en les fletxes verdes per a mapes adjacents.


METAR-TAF: